sensor_id;sensor_type;location;lat;lon;timestamp;temperature;humidity
7516;DHT22;3799;47.184;8.538;2023-03-14T00:01:17;10.90;99.90
7516;DHT22;3799;47.184;8.538;2023-03-14T00:03:54;10.60;99.90
7516;DHT22;3799;47.184;8.538;2023-03-14T00:06:42;10.70;99.90
7516;DHT22;3799;47.184;8.538;2023-03-14T00:09:23;10.40;99.90
7516;DHT22;3799;47.184;8.538;2023-03-14T00:12:04;10.70;99.90
7516;DHT22;3799;47.184;8.538;2023-03-14T00:14:31;10.20;99.90
7516;DHT22;3799;47.184;8.538;2023-03-14T00:17:23;10.40;99.90
7516;DHT22;3799;47.184;8.538;2023-03-14T00:20:03;9.80;99.90
7516;DHT22;3799;47.184;8.538;2023-03-14T00:22:49;9.80;99.90
7516;DHT22;3799;47.184;8.538;2023-03-14T00:25:23;9.70;99.90
7516;DHT22;3799;47.184;8.538;2023-03-14T00:28:05;9.80;99.90
7516;DHT22;3799;47.184;8.538;2023-03-14T00:30:37;9.60;99.90
7516;DHT22;3799;47.184;8.538;2023-03-14T00:33:04;9.50;99.90
7516;DHT22;3799;47.184;8.538;2023-03-14T00:35:37;9.40;99.90
7516;DHT22;3799;47.184;8.538;2023-03-14T00:38:07;9.50;99.90
7516;DHT22;3799;47.184;8.538;2023-03-14T00:40:39;9.10;99.90
7516;DHT22;3799;47.184;8.538;2023-03-14T00:43:11;9.30;99.90
7516;DHT22;3799;47.184;8.538;2023-03-14T00:45:39;9.40;99.90
7516;DHT22;3799;47.184;8.538;2023-03-14T00:48:09;9.20;99.90
7516;DHT22;3799;47.184;8.538;2023-03-14T00:50:39;9.20;99.90
7516;DHT22;3799;47.184;8.538;2023-03-14T00:53:07;9.10;99.90
7516;DHT22;3799;47.184;8.538;2023-03-14T00:55:44;9.30;99.90
7516;DHT22;3799;47.184;8.538;2023-03-14T00:58:16;9.30;99.90
7516;DHT22;3799;47.184;8.538;2023-03-14T01:00:51;9.10;99.90
7516;DHT22;3799;47.184;8.538;2023-03-14T01:03:21;9.10;99.90
7516;DHT22;3799;47.184;8.538;2023-03-14T01:06:39;9.20;99.90
7516;DHT22;3799;47.184;8.538;2023-03-14T01:09:00;9.30;99.90
7516;DHT22;3799;47.184;8.538;2023-03-14T01:11:31;9.30;99.90
7516;DHT22;3799;47.184;8.538;2023-03-14T01:14:03;9.40;99.90
7516;DHT22;3799;47.184;8.538;2023-03-14T01:16:33;9.40;99.90
7516;DHT22;3799;47.184;8.538;2023-03-14T01:19:10;9.50;99.90
7516;DHT22;3799;47.184;8.538;2023-03-14T01:21:47;9.20;99.90
7516;DHT22;3799;47.184;8.538;2023-03-14T01:24:17;9.50;99.90
7516;DHT22;3799;47.184;8.538;2023-03-14T01:26:47;9.50;99.90
7516;DHT22;3799;47.184;8.538;2023-03-14T01:29:36;9.20;99.90
7516;DHT22;3799;47.184;8.538;2023-03-14T01:32:12;9.30;99.90
7516;DHT22;3799;47.184;8.538;2023-03-14T01:34:40;9.40;99.90
7516;DHT22;3799;47.184;8.538;2023-03-14T01:37:17;9.40;99.90
7516;DHT22;3799;47.184;8.538;2023-03-14T01:40:10;9.30;99.90
7516;DHT22;3799;47.184;8.538;2023-03-14T01:43:05;9.20;99.90
7516;DHT22;3799;47.184;8.538;2023-03-14T01:48:53;9.40;99.90
7516;DHT22;3799;47.184;8.538;2023-03-14T01:54:25;9.50;99.90
7516;DHT22;3799;47.184;8.538;2023-03-14T02:00:00;9.40;99.90
7516;DHT22;3799;47.184;8.538;2023-03-14T02:02:30;9.40;99.90
7516;DHT22;3799;47.184;8.538;2023-03-14T02:05:02;9.50;99.90
7516;DHT22;3799;47.184;8.538;2023-03-14T02:07:56;9.20;99.90
7516;DHT22;3799;47.184;8.538;2023-03-14T02:10:35;9.40;99.90
7516;DHT22;3799;47.184;8.538;2023-03-14T02:13:08;9.40;99.90
7516;DHT22;3799;47.184;8.538;2023-03-14T02:15:37;9.50;99.90
7516;DHT22;3799;47.184;8.538;2023-03-14T02:18:13;9.40;99.90
7516;DHT22;3799;47.184;8.538;2023-03-14T02:23:58;9.50;99.90
7516;DHT22;3799;47.184;8.538;2023-03-14T02:29:51;9.50;99.90
7516;DHT22;3799;47.184;8.538;2023-03-14T02:33:12;9.40;99.90
7516;DHT22;3799;47.184;8.538;2023-03-14T02:36:02;9.50;99.90
7516;DHT22;3799;47.184;8.538;2023-03-14T02:39:05;9.10;99.90
7516;DHT22;3799;47.184;8.538;2023-03-14T02:41:37;9.40;99.90
7516;DHT22;3799;47.184;8.538;2023-03-14T02:44:08;9.50;99.90
7516;DHT22;3799;47.184;8.538;2023-03-14T02:46:44;9.20;99.90
7516;DHT22;3799;47.184;8.538;2023-03-14T02:49:17;9.40;99.90
7516;DHT22;3799;47.184;8.538;2023-03-14T02:52:04;9.30;99.90
7516;DHT22;3799;47.184;8.538;2023-03-14T02:54:53;9.20;99.90
7516;DHT22;3799;47.184;8.538;2023-03-14T02:57:23;9.30;99.90
7516;DHT22;3799;47.184;8.538;2023-03-14T03:00:02;9.40;99.90
7516;DHT22;3799;47.184;8.538;2023-03-14T03:02:32;9.30;99.90
7516;DHT22;3799;47.184;8.538;2023-03-14T03:04:59;9.30;99.90
7516;DHT22;3799;47.184;8.538;2023-03-14T03:07:27;9.20;99.90
7516;DHT22;3799;47.184;8.538;2023-03-14T03:09:55;9.40;99.90
7516;DHT22;3799;47.184;8.538;2023-03-14T03:12:22;9.40;99.90
7516;DHT22;3799;47.184;8.538;2023-03-14T03:14:49;9.40;99.90
7516;DHT22;3799;47.184;8.538;2023-03-14T03:17:19;9.50;99.90
7516;DHT22;3799;47.184;8.538;2023-03-14T03:19:46;9.40;99.90
7516;DHT22;3799;47.184;8.538;2023-03-14T03:22:14;9.30;99.90
7516;DHT22;3799;47.184;8.538;2023-03-14T03:24:41;9.40;99.90
7516;DHT22;3799;47.184;8.538;2023-03-14T03:27:08;9.40;99.90
7516;DHT22;3799;47.184;8.538;2023-03-14T03:29:35;9.40;99.90
7516;DHT22;3799;47.184;8.538;2023-03-14T03:32:03;9.20;99.90
7516;DHT22;3799;47.184;8.538;2023-03-14T03:34:30;9.40;99.90
7516;DHT22;3799;47.184;8.538;2023-03-14T03:36:57;9.30;99.90
7516;DHT22;3799;47.184;8.538;2023-03-14T03:39:25;9.30;99.90
7516;DHT22;3799;47.184;8.538;2023-03-14T03:41:52;9.00;99.90
7516;DHT22;3799;47.184;8.538;2023-03-14T03:44:26;9.20;99.90
7516;DHT22;3799;47.184;8.538;2023-03-14T03:46:53;9.30;99.90
7516;DHT22;3799;47.184;8.538;2023-03-14T03:49:22;9.10;99.90
7516;DHT22;3799;47.184;8.538;2023-03-14T03:51:50;9.40;99.90
7516;DHT22;3799;47.184;8.538;2023-03-14T03:54:17;9.00;99.90
7516;DHT22;3799;47.184;8.538;2023-03-14T03:56:47;9.30;99.90
7516;DHT22;3799;47.184;8.538;2023-03-14T03:59:14;9.20;99.90
7516;DHT22;3799;47.184;8.538;2023-03-14T04:01:41;8.90;99.90
7516;DHT22;3799;47.184;8.538;2023-03-14T04:04:09;9.00;99.90
7516;DHT22;3799;47.184;8.538;2023-03-14T04:06:37;8.90;99.90
7516;DHT22;3799;47.184;8.538;2023-03-14T04:09:05;8.80;99.90
7516;DHT22;3799;47.184;8.538;2023-03-14T04:11:32;8.60;99.90
7516;DHT22;3799;47.184;8.538;2023-03-14T04:14:01;8.70;99.90
7516;DHT22;3799;47.184;8.538;2023-03-14T04:16:30;9.00;99.90
7516;DHT22;3799;47.184;8.538;2023-03-14T04:19:04;8.60;99.90
7516;DHT22;3799;47.184;8.538;2023-03-14T04:21:31;8.60;99.90
7516;DHT22;3799;47.184;8.538;2023-03-14T04:24:12;8.40;99.90
7516;DHT22;3799;47.184;8.538;2023-03-14T04:26:42;8.70;99.90
7516;DHT22;3799;47.184;8.538;2023-03-14T04:29:10;8.50;99.90
7516;DHT22;3799;47.184;8.538;2023-03-14T04:31:39;8.50;99.90
7516;DHT22;3799;47.184;8.538;2023-03-14T04:34:07;8.50;99.90
7516;DHT22;3799;47.184;8.538;2023-03-14T04:36:34;8.60;99.90
7516;DHT22;3799;47.184;8.538;2023-03-14T04:39:05;8.70;99.90
7516;DHT22;3799;47.184;8.538;2023-03-14T04:41:33;8.40;99.90
7516;DHT22;3799;47.184;8.538;2023-03-14T04:44:00;8.50;99.90
7516;DHT22;3799;47.184;8.538;2023-03-14T04:46:28;8.50;99.90
7516;DHT22;3799;47.184;8.538;2023-03-14T04:48:56;8.60;99.90
7516;DHT22;3799;47.184;8.538;2023-03-14T04:51:36;8.50;99.90
7516;DHT22;3799;47.184;8.538;2023-03-14T04:54:20;8.20;99.90
7516;DHT22;3799;47.184;8.538;2023-03-14T04:56:58;8.30;99.90
7516;DHT22;3799;47.184;8.538;2023-03-14T04:59:30;8.30;99.90
7516;DHT22;3799;47.184;8.538;2023-03-14T05:01:58;8.30;99.90
7516;DHT22;3799;47.184;8.538;2023-03-14T05:04:26;8.60;99.90
7516;DHT22;3799;47.184;8.538;2023-03-14T05:06:54;8.50;99.90
7516;DHT22;3799;47.184;8.538;2023-03-14T05:09:21;8.20;99.90
7516;DHT22;3799;47.184;8.538;2023-03-14T05:11:55;8.50;99.90
7516;DHT22;3799;47.184;8.538;2023-03-14T05:14:22;8.40;99.90
7516;DHT22;3799;47.184;8.538;2023-03-14T05:16:52;8.40;99.90
7516;DHT22;3799;47.184;8.538;2023-03-14T05:19:20;8.20;99.90
7516;DHT22;3799;47.184;8.538;2023-03-14T05:21:50;8.30;99.90
7516;DHT22;3799;47.184;8.538;2023-03-14T05:24:20;8.50;99.90
7516;DHT22;3799;47.184;8.538;2023-03-14T05:26:48;8.30;99.90
7516;DHT22;3799;47.184;8.538;2023-03-14T05:29:15;8.40;99.90
7516;DHT22;3799;47.184;8.538;2023-03-14T05:32:04;8.40;99.90
7516;DHT22;3799;47.184;8.538;2023-03-14T05:34:33;8.10;99.90
7516;DHT22;3799;47.184;8.538;2023-03-14T05:37:00;8.20;99.90
7516;DHT22;3799;47.184;8.538;2023-03-14T05:39:28;8.10;99.90
7516;DHT22;3799;47.184;8.538;2023-03-14T05:42:16;8.10;99.90
7516;DHT22;3799;47.184;8.538;2023-03-14T05:45:07;8.20;99.90
7516;DHT22;3799;47.184;8.538;2023-03-14T05:48:02;7.90;99.90
7516;DHT22;3799;47.184;8.538;2023-03-14T05:50:29;8.20;99.90
7516;DHT22;3799;47.184;8.538;2023-03-14T05:52:57;7.90;99.90
7516;DHT22;3799;47.184;8.538;2023-03-14T05:55:30;8.10;99.90
7516;DHT22;3799;47.184;8.538;2023-03-14T05:58:00;7.80;99.90
7516;DHT22;3799;47.184;8.538;2023-03-14T06:00:39;8.10;99.90
7516;DHT22;3799;47.184;8.538;2023-03-14T06:03:07;7.70;99.90
7516;DHT22;3799;47.184;8.538;2023-03-14T06:05:44;7.80;99.90
7516;DHT22;3799;47.184;8.538;2023-03-14T06:08:11;7.70;99.90
7516;DHT22;3799;47.184;8.538;2023-03-14T06:11:07;8.10;99.90
7516;DHT22;3799;47.184;8.538;2023-03-14T06:13:41;7.80;99.90
7516;DHT22;3799;47.184;8.538;2023-03-14T06:16:09;7.70;99.90
7516;DHT22;3799;47.184;8.538;2023-03-14T06:18:37;7.60;99.90
7516;DHT22;3799;47.184;8.538;2023-03-14T06:21:05;7.80;99.90
7516;DHT22;3799;47.184;8.538;2023-03-14T06:23:36;7.60;99.90
7516;DHT22;3799;47.184;8.538;2023-03-14T06:26:19;7.60;99.90
7516;DHT22;3799;47.184;8.538;2023-03-14T06:29:06;7.60;99.90
7516;DHT22;3799;47.184;8.538;2023-03-14T06:31:34;7.80;99.90
7516;DHT22;3799;47.184;8.538;2023-03-14T06:34:01;7.70;99.90
7516;DHT22;3799;47.184;8.538;2023-03-14T06:36:35;7.50;99.90
7516;DHT22;3799;47.184;8.538;2023-03-14T06:39:03;7.70;99.90
7516;DHT22;3799;47.184;8.538;2023-03-14T06:41:30;7.40;99.90
7516;DHT22;3799;47.184;8.538;2023-03-14T06:43:58;7.60;99.90
7516;DHT22;3799;47.184;8.538;2023-03-14T06:46:26;7.50;99.90
7516;DHT22;3799;47.184;8.538;2023-03-14T06:49:00;7.60;99.90
7516;DHT22;3799;47.184;8.538;2023-03-14T06:51:34;7.50;99.90
7516;DHT22;3799;47.184;8.538;2023-03-14T06:54:02;7.50;99.90
7516;DHT22;3799;47.184;8.538;2023-03-14T06:56:30;7.80;99.90
7516;DHT22;3799;47.184;8.538;2023-03-14T06:58:58;7.80;99.90
7516;DHT22;3799;47.184;8.538;2023-03-14T07:01:27;7.80;99.90
7516;DHT22;3799;47.184;8.538;2023-03-14T07:03:55;7.50;99.90
7516;DHT22;3799;47.184;8.538;2023-03-14T07:06:34;7.70;99.90
7516;DHT22;3799;47.184;8.538;2023-03-14T07:09:03;7.70;99.90
7516;DHT22;3799;47.184;8.538;2023-03-14T07:11:37;8.10;99.90
7516;DHT22;3799;47.184;8.538;2023-03-14T07:14:04;8.00;99.90
7516;DHT22;3799;47.184;8.538;2023-03-14T07:16:32;8.10;99.90
7516;DHT22;3799;47.184;8.538;2023-03-14T07:19:01;8.10;99.90
7516;DHT22;3799;47.184;8.538;2023-03-14T07:21:28;8.20;99.90
7516;DHT22;3799;47.184;8.538;2023-03-14T07:23:55;8.40;99.90
7516;DHT22;3799;47.184;8.538;2023-03-14T07:26:23;9.20;99.90
7516;DHT22;3799;47.184;8.538;2023-03-14T07:28:50;9.30;99.90
7516;DHT22;3799;47.184;8.538;2023-03-14T07:31:23;9.60;99.90
7516;DHT22;3799;47.184;8.538;2023-03-14T07:33:51;9.70;99.90
7516;DHT22;3799;47.184;8.538;2023-03-14T07:36:18;10.30;99.90
7516;DHT22;3799;47.184;8.538;2023-03-14T07:38:45;10.10;99.90
7516;DHT22;3799;47.184;8.538;2023-03-14T07:41:13;10.30;99.90
7516;DHT22;3799;47.184;8.538;2023-03-14T07:43:44;10.70;99.90
7516;DHT22;3799;47.184;8.538;2023-03-14T07:46:12;10.90;99.90
7516;DHT22;3799;47.184;8.538;2023-03-14T07:48:39;10.90;99.90
7516;DHT22;3799;47.184;8.538;2023-03-14T07:51:07;11.20;99.90
7516;DHT22;3799;47.184;8.538;2023-03-14T07:53:34;11.10;99.90
7516;DHT22;3799;47.184;8.538;2023-03-14T07:56:02;11.30;99.90
7516;DHT22;3799;47.184;8.538;2023-03-14T07:58:29;11.30;99.90
7516;DHT22;3799;47.184;8.538;2023-03-14T08:00:58;11.40;99.90
7516;DHT22;3799;47.184;8.538;2023-03-14T08:03:26;11.50;99.90
7516;DHT22;3799;47.184;8.538;2023-03-14T08:05:54;11.60;99.90
7516;DHT22;3799;47.184;8.538;2023-03-14T08:08:21;11.40;99.90
7516;DHT22;3799;47.184;8.538;2023-03-14T08:10:49;11.80;99.90
7516;DHT22;3799;47.184;8.538;2023-03-14T08:13:16;11.40;99.90
7516;DHT22;3799;47.184;8.538;2023-03-14T08:15:48;11.40;99.90
7516;DHT22;3799;47.184;8.538;2023-03-14T08:18:16;11.40;99.90
7516;DHT22;3799;47.184;8.538;2023-03-14T08:20:43;11.30;99.90
7516;DHT22;3799;47.184;8.538;2023-03-14T08:23:11;11.30;99.90
7516;DHT22;3799;47.184;8.538;2023-03-14T08:25:39;11.40;99.90
7516;DHT22;3799;47.184;8.538;2023-03-14T08:28:06;11.40;99.90
7516;DHT22;3799;47.184;8.538;2023-03-14T08:30:34;11.40;99.90
7516;DHT22;3799;47.184;8.538;2023-03-14T08:33:01;11.00;99.90
7516;DHT22;3799;47.184;8.538;2023-03-14T08:35:28;11.10;99.90
7516;DHT22;3799;47.184;8.538;2023-03-14T08:37:56;11.10;99.90
7516;DHT22;3799;47.184;8.538;2023-03-14T08:40:27;10.80;99.90
7516;DHT22;3799;47.184;8.538;2023-03-14T08:42:54;10.70;99.90
7516;DHT22;3799;47.184;8.538;2023-03-14T08:45:21;11.00;99.90
7516;DHT22;3799;47.184;8.538;2023-03-14T08:47:50;10.50;99.90
7516;DHT22;3799;47.184;8.538;2023-03-14T08:50:20;10.30;99.90
7516;DHT22;3799;47.184;8.538;2023-03-14T08:52:48;10.50;99.90
7516;DHT22;3799;47.184;8.538;2023-03-14T08:55:16;10.60;99.90
7516;DHT22;3799;47.184;8.538;2023-03-14T08:57:44;10.60;99.90
7516;DHT22;3799;47.184;8.538;2023-03-14T09:00:13;10.60;99.90
7516;DHT22;3799;47.184;8.538;2023-03-14T09:02:46;10.70;99.90
7516;DHT22;3799;47.184;8.538;2023-03-14T09:05:21;11.10;99.90
7516;DHT22;3799;47.184;8.538;2023-03-14T09:07:50;10.90;99.90
7516;DHT22;3799;47.184;8.538;2023-03-14T09:10:18;11.10;99.90
7516;DHT22;3799;47.184;8.538;2023-03-14T09:12:51;11.10;99.90
7516;DHT22;3799;47.184;8.538;2023-03-14T09:15:29;11.20;99.90
7516;DHT22;3799;47.184;8.538;2023-03-14T09:17:59;11.00;99.90
7516;DHT22;3799;47.184;8.538;2023-03-14T09:20:29;11.00;99.90
7516;DHT22;3799;47.184;8.538;2023-03-14T09:23:04;10.90;99.90
7516;DHT22;3799;47.184;8.538;2023-03-14T09:25:34;11.20;99.90
7516;DHT22;3799;47.184;8.538;2023-03-14T09:28:03;11.30;99.90
7516;DHT22;3799;47.184;8.538;2023-03-14T09:30:33;11.40;99.90
7516;DHT22;3799;47.184;8.538;2023-03-14T09:33:04;11.10;99.90
7516;DHT22;3799;47.184;8.538;2023-03-14T09:35:33;11.00;99.90
7516;DHT22;3799;47.184;8.538;2023-03-14T09:38:01;11.00;99.90
7516;DHT22;3799;47.184;8.538;2023-03-14T09:40:35;10.90;99.90
7516;DHT22;3799;47.184;8.538;2023-03-14T09:43:09;10.90;99.90
7516;DHT22;3799;47.184;8.538;2023-03-14T09:45:41;10.80;99.90
7516;DHT22;3799;47.184;8.538;2023-03-14T09:48:22;10.80;99.90
7516;DHT22;3799;47.184;8.538;2023-03-14T09:50:54;11.20;99.90
7516;DHT22;3799;47.184;8.538;2023-03-14T09:53:27;10.80;99.90
7516;DHT22;3799;47.184;8.538;2023-03-14T09:55:58;10.90;99.90
7516;DHT22;3799;47.184;8.538;2023-03-14T09:58:26;10.60;99.90
7516;DHT22;3799;47.184;8.538;2023-03-14T10:00:56;10.60;99.90
7516;DHT22;3799;47.184;8.538;2023-03-14T10:03:35;10.90;99.90
7516;DHT22;3799;47.184;8.538;2023-03-14T10:06:13;11.00;99.90
7516;DHT22;3799;47.184;8.538;2023-03-14T10:08:45;10.70;99.90
7516;DHT22;3799;47.184;8.538;2023-03-14T10:11:17;10.80;99.90
7516;DHT22;3799;47.184;8.538;2023-03-14T10:16:39;10.60;99.90
7516;DHT22;3799;47.184;8.538;2023-03-14T10:19:15;10.60;99.90
7516;DHT22;3799;47.184;8.538;2023-03-14T10:21:53;10.90;99.90
7516;DHT22;3799;47.184;8.538;2023-03-14T10:24:27;10.90;99.90
7516;DHT22;3799;47.184;8.538;2023-03-14T10:29:31;10.80;99.90
7516;DHT22;3799;47.184;8.538;2023-03-14T10:32:04;10.90;99.90
7516;DHT22;3799;47.184;8.538;2023-03-14T10:34:37;10.60;99.90
7516;DHT22;3799;47.184;8.538;2023-03-14T10:37:13;10.90;99.90
7516;DHT22;3799;47.184;8.538;2023-03-14T10:40:01;10.90;99.90
7516;DHT22;3799;47.184;8.538;2023-03-14T10:42:34;10.80;99.90
7516;DHT22;3799;47.184;8.538;2023-03-14T10:45:22;10.70;99.90
7516;DHT22;3799;47.184;8.538;2023-03-14T10:47:52;10.70;99.90
7516;DHT22;3799;47.184;8.538;2023-03-14T10:50:30;10.60;99.90
7516;DHT22;3799;47.184;8.538;2023-03-14T10:53:08;10.40;99.90
7516;DHT22;3799;47.184;8.538;2023-03-14T10:55:44;10.70;99.90
7516;DHT22;3799;47.184;8.538;2023-03-14T10:58:25;10.50;99.90
7516;DHT22;3799;47.184;8.538;2023-03-14T11:03:38;10.20;99.90
7516;DHT22;3799;47.184;8.538;2023-03-14T11:06:26;10.30;99.90
7516;DHT22;3799;47.184;8.538;2023-03-14T11:09:05;10.40;99.90
7516;DHT22;3799;47.184;8.538;2023-03-14T11:11:37;10.30;99.90
7516;DHT22;3799;47.184;8.538;2023-03-14T11:16:57;10.00;99.90
7516;DHT22;3799;47.184;8.538;2023-03-14T11:22:36;10.00;99.90
7516;DHT22;3799;47.184;8.538;2023-03-14T11:28:18;9.80;99.90
7516;DHT22;3799;47.184;8.538;2023-03-14T11:39:29;9.40;99.90
7516;DHT22;3799;47.184;8.538;2023-03-14T11:42:16;9.20;99.90
7516;DHT22;3799;47.184;8.538;2023-03-14T11:44:47;9.40;99.90
7516;DHT22;3799;47.184;8.538;2023-03-14T11:47:19;9.20;99.90
7516;DHT22;3799;47.184;8.538;2023-03-14T11:50:17;9.00;99.90
7516;DHT22;3799;47.184;8.538;2023-03-14T11:52:49;9.10;99.90
7516;DHT22;3799;47.184;8.538;2023-03-14T11:55:50;8.90;99.90
7516;DHT22;3799;47.184;8.538;2023-03-14T11:58:25;9.00;99.90
7516;DHT22;3799;47.184;8.538;2023-03-14T12:00:55;8.90;99.90
7516;DHT22;3799;47.184;8.538;2023-03-14T12:06:22;9.00;99.90
7516;DHT22;3799;47.184;8.538;2023-03-14T12:09:00;8.60;99.90
7516;DHT22;3799;47.184;8.538;2023-03-14T12:14:01;8.60;99.90
7516;DHT22;3799;47.184;8.538;2023-03-14T12:16:37;8.50;99.90
7516;DHT22;3799;47.184;8.538;2023-03-14T12:19:26;8.70;99.90
7516;DHT22;3799;47.184;8.538;2023-03-14T12:22:05;8.70;99.90
7516;DHT22;3799;47.184;8.538;2023-03-14T12:24:38;8.80;99.90
7516;DHT22;3799;47.184;8.538;2023-03-14T12:27:13;8.60;99.90
7516;DHT22;3799;47.184;8.538;2023-03-14T12:30:24;8.80;99.90
7516;DHT22;3799;47.184;8.538;2023-03-14T12:35:44;9.00;99.90
7516;DHT22;3799;47.184;8.538;2023-03-14T12:43:47;8.80;99.90
7516;DHT22;3799;47.184;8.538;2023-03-14T12:49:05;8.90;99.90
7516;DHT22;3799;47.184;8.538;2023-03-14T12:51:59;9.00;99.90
7516;DHT22;3799;47.184;8.538;2023-03-14T12:55:02;9.00;99.90
7516;DHT22;3799;47.184;8.538;2023-03-14T12:57:47;8.90;99.90
7516;DHT22;3799;47.184;8.538;2023-03-14T13:00:22;9.30;99.90
7516;DHT22;3799;47.184;8.538;2023-03-14T13:02:52;9.00;99.90
7516;DHT22;3799;47.184;8.538;2023-03-14T13:05:22;8.90;99.90
7516;DHT22;3799;47.184;8.538;2023-03-14T13:08:04;9.30;99.90
7516;DHT22;3799;47.184;8.538;2023-03-14T13:10:53;9.00;99.90
7516;DHT22;3799;47.184;8.538;2023-03-14T13:13:52;8.90;99.90
7516;DHT22;3799;47.184;8.538;2023-03-14T13:16:25;8.80;99.90
7516;DHT22;3799;47.184;8.538;2023-03-14T13:19:03;9.20;99.90
7516;DHT22;3799;47.184;8.538;2023-03-14T13:21:41;8.90;99.90
7516;DHT22;3799;47.184;8.538;2023-03-14T13:24:27;9.30;99.90
7516;DHT22;3799;47.184;8.538;2023-03-14T13:26:58;9.10;99.90
7516;DHT22;3799;47.184;8.538;2023-03-14T13:29:32;8.80;99.90
7516;DHT22;3799;47.184;8.538;2023-03-14T13:32:40;8.90;99.90
7516;DHT22;3799;47.184;8.538;2023-03-14T13:35:28;9.40;99.90
7516;DHT22;3799;47.184;8.538;2023-03-14T13:38:03;9.20;99.90
7516;DHT22;3799;47.184;8.538;2023-03-14T13:40:43;9.40;99.90
7516;DHT22;3799;47.184;8.538;2023-03-14T13:43:20;9.30;99.90
7516;DHT22;3799;47.184;8.538;2023-03-14T13:46:01;9.40;99.90
7516;DHT22;3799;47.184;8.538;2023-03-14T13:48:32;9.20;99.90
7516;DHT22;3799;47.184;8.538;2023-03-14T13:51:02;9.40;99.90
7516;DHT22;3799;47.184;8.538;2023-03-14T13:53:44;9.20;99.90
7516;DHT22;3799;47.184;8.538;2023-03-14T13:56:20;9.10;99.90
7516;DHT22;3799;47.184;8.538;2023-03-14T13:58:50;9.40;99.90
7516;DHT22;3799;47.184;8.538;2023-03-14T14:01:18;9.50;99.90
7516;DHT22;3799;47.184;8.538;2023-03-14T14:03:50;9.50;99.90
7516;DHT22;3799;47.184;8.538;2023-03-14T14:06:43;9.60;99.90
7516;DHT22;3799;47.184;8.538;2023-03-14T14:09:45;9.30;99.90
7516;DHT22;3799;47.184;8.538;2023-03-14T14:15:00;9.80;99.90
7516;DHT22;3799;47.184;8.538;2023-03-14T14:17:36;10.10;99.80
7516;DHT22;3799;47.184;8.538;2023-03-14T14:20:38;10.10;98.80
7516;DHT22;3799;47.184;8.538;2023-03-14T14:26:16;10.60;95.80
7516;DHT22;3799;47.184;8.538;2023-03-14T14:29:01;10.70;96.70
7516;DHT22;3799;47.184;8.538;2023-03-14T14:31:29;10.90;97.10
7516;DHT22;3799;47.184;8.538;2023-03-14T14:34:01;11.00;97.50
7516;DHT22;3799;47.184;8.538;2023-03-14T14:36:47;10.80;98.20
7516;DHT22;3799;47.184;8.538;2023-03-14T14:39:20;10.70;98.50
7516;DHT22;3799;47.184;8.538;2023-03-14T14:42:14;10.80;98.10
7516;DHT22;3799;47.184;8.538;2023-03-14T14:44:44;10.30;97.40
7516;DHT22;3799;47.184;8.538;2023-03-14T14:47:15;10.40;97.30
7516;DHT22;3799;47.184;8.538;2023-03-14T14:49:48;10.30;97.40
7516;DHT22;3799;47.184;8.538;2023-03-14T14:52:30;10.30;97.90
7516;DHT22;3799;47.184;8.538;2023-03-14T14:55:11;10.20;97.60
7516;DHT22;3799;47.184;8.538;2023-03-14T14:57:53;10.60;97.50
7516;DHT22;3799;47.184;8.538;2023-03-14T15:00:25;11.40;96.60
7516;DHT22;3799;47.184;8.538;2023-03-14T15:03:20;11.60;91.70
7516;DHT22;3799;47.184;8.538;2023-03-14T15:05:49;12.00;91.00
7516;DHT22;3799;47.184;8.538;2023-03-14T15:08:26;12.70;86.60
7516;DHT22;3799;47.184;8.538;2023-03-14T15:11:00;12.70;84.30
7516;DHT22;3799;47.184;8.538;2023-03-14T15:13:27;12.60;79.00
7516;DHT22;3799;47.184;8.538;2023-03-14T15:15:54;12.30;78.10
7516;DHT22;3799;47.184;8.538;2023-03-14T15:18:25;11.90;79.00
7516;DHT22;3799;47.184;8.538;2023-03-14T15:21:01;11.50;78.60
7516;DHT22;3799;47.184;8.538;2023-03-14T15:23:34;11.10;82.30
7516;DHT22;3799;47.184;8.538;2023-03-14T15:26:11;11.10;83.00
7516;DHT22;3799;47.184;8.538;2023-03-14T15:28:45;11.00;84.20
7516;DHT22;3799;47.184;8.538;2023-03-14T15:31:15;11.60;85.10
7516;DHT22;3799;47.184;8.538;2023-03-14T15:33:45;12.20;79.40
7516;DHT22;3799;47.184;8.538;2023-03-14T15:38:50;13.30;68.80
7516;DHT22;3799;47.184;8.538;2023-03-14T15:41:18;13.50;70.10
7516;DHT22;3799;47.184;8.538;2023-03-14T15:43:56;13.40;65.60
7516;DHT22;3799;47.184;8.538;2023-03-14T15:46:24;13.30;66.00
7516;DHT22;3799;47.184;8.538;2023-03-14T15:48:55;12.60;66.00
7516;DHT22;3799;47.184;8.538;2023-03-14T15:51:23;12.30;66.90
7516;DHT22;3799;47.184;8.538;2023-03-14T15:53:51;12.10;66.80
7516;DHT22;3799;47.184;8.538;2023-03-14T15:56:20;11.50;68.20
7516;DHT22;3799;47.184;8.538;2023-03-14T15:58:50;11.30;68.50
7516;DHT22;3799;47.184;8.538;2023-03-14T16:01:18;11.10;71.00
7516;DHT22;3799;47.184;8.538;2023-03-14T16:03:49;10.70;72.80
7516;DHT22;3799;47.184;8.538;2023-03-14T16:06:19;10.30;74.90
7516;DHT22;3799;47.184;8.538;2023-03-14T16:08:48;10.30;77.30
7516;DHT22;3799;47.184;8.538;2023-03-14T16:11:25;10.30;78.40
7516;DHT22;3799;47.184;8.538;2023-03-14T16:14:13;10.10;80.20
7516;DHT22;3799;47.184;8.538;2023-03-14T16:16:41;10.00;80.20
7516;DHT22;3799;47.184;8.538;2023-03-14T16:19:08;9.90;85.40
7516;DHT22;3799;47.184;8.538;2023-03-14T16:21:36;9.80;88.00
7516;DHT22;3799;47.184;8.538;2023-03-14T16:24:05;9.60;90.40
7516;DHT22;3799;47.184;8.538;2023-03-14T16:26:33;9.50;91.90
7516;DHT22;3799;47.184;8.538;2023-03-14T16:29:03;9.10;92.70
7516;DHT22;3799;47.184;8.538;2023-03-14T16:31:31;9.00;96.00
7516;DHT22;3799;47.184;8.538;2023-03-14T16:34:02;9.20;97.50
7516;DHT22;3799;47.184;8.538;2023-03-14T16:36:34;9.10;99.90
7516;DHT22;3799;47.184;8.538;2023-03-14T16:39:01;9.10;99.90
7516;DHT22;3799;47.184;8.538;2023-03-14T16:41:34;9.00;99.90
7516;DHT22;3799;47.184;8.538;2023-03-14T16:44:02;8.40;99.90
7516;DHT22;3799;47.184;8.538;2023-03-14T16:46:32;8.70;99.90
7516;DHT22;3799;47.184;8.538;2023-03-14T16:49:04;8.60;99.90
7516;DHT22;3799;47.184;8.538;2023-03-14T16:51:39;8.40;99.90
7516;DHT22;3799;47.184;8.538;2023-03-14T16:54:16;8.20;99.90
7516;DHT22;3799;47.184;8.538;2023-03-14T16:56:47;8.30;99.90
7516;DHT22;3799;47.184;8.538;2023-03-14T16:59:27;8.20;99.90
7516;DHT22;3799;47.184;8.538;2023-03-14T17:02:02;8.10;99.90
7516;DHT22;3799;47.184;8.538;2023-03-14T17:04:30;8.00;99.90
7516;DHT22;3799;47.184;8.538;2023-03-14T17:07:02;7.80;99.90
7516;DHT22;3799;47.184;8.538;2023-03-14T17:09:37;8.00;99.90
7516;DHT22;3799;47.184;8.538;2023-03-14T17:12:12;7.60;99.90
7516;DHT22;3799;47.184;8.538;2023-03-14T17:14:39;7.70;99.90
7516;DHT22;3799;47.184;8.538;2023-03-14T17:17:21;7.60;99.90
7516;DHT22;3799;47.184;8.538;2023-03-14T17:19:51;7.70;99.90
7516;DHT22;3799;47.184;8.538;2023-03-14T17:22:20;7.50;99.90
7516;DHT22;3799;47.184;8.538;2023-03-14T17:24:53;7.50;99.90
7516;DHT22;3799;47.184;8.538;2023-03-14T17:27:30;7.30;99.90
7516;DHT22;3799;47.184;8.538;2023-03-14T17:29:57;7.30;99.90
7516;DHT22;3799;47.184;8.538;2023-03-14T17:32:28;7.40;99.90
7516;DHT22;3799;47.184;8.538;2023-03-14T17:35:01;7.40;99.90
7516;DHT22;3799;47.184;8.538;2023-03-14T17:37:31;7.10;99.90
7516;DHT22;3799;47.184;8.538;2023-03-14T17:40:17;7.40;99.90
7516;DHT22;3799;47.184;8.538;2023-03-14T17:42:55;7.20;99.90
7516;DHT22;3799;47.184;8.538;2023-03-14T17:45:27;7.30;99.90
7516;DHT22;3799;47.184;8.538;2023-03-14T17:48:17;7.20;99.90
7516;DHT22;3799;47.184;8.538;2023-03-14T17:50:47;7.40;99.90
7516;DHT22;3799;47.184;8.538;2023-03-14T17:53:38;7.30;99.90
7516;DHT22;3799;47.184;8.538;2023-03-14T17:56:12;7.40;99.90
7516;DHT22;3799;47.184;8.538;2023-03-14T17:59:01;7.20;99.90
7516;DHT22;3799;47.184;8.538;2023-03-14T18:01:45;7.30;99.90